Time;durP1;ratioP1;P1;durP2;ratioP2;P2;SDS_P1;SDS_P2;PMS_P1;PMS_P2;Temp;Humidity;BMP_temperature;BMP_pressure;BME280_temperature;BME280_humidity;BME280_pressure;Samples;Min_cycle;Max_cycle;Signal;HPM_P1;HPM_P2
2022/07/16 00:03:14;;;;;;;5.63;3.30;;;;;;;14.86;100.00;101901.84;4957892;28;20055;-84
2022/07/16 00:05:43;;;;;;;6.80;3.88;;;;;;;14.87;100.00;101901.00;4943846;28;20050;-83
2022/07/16 00:08:11;;;;;;;7.35;3.60;;;;;;;14.88;100.00;101895.69;4968147;28;20478;-80
2022/07/16 00:10:40;;;;;;;7.40;4.35;;;;;;;14.89;100.00;101889.47;4956268;28;20066;-81
2022/07/16 00:13:08;;;;;;;8.65;4.22;;;;;;;14.89;100.00;101896.56;4986225;28;20051;-82
2022/07/16 00:15:37;;;;;;;10.70;4.30;;;;;;;14.88;100.00;101906.31;4967953;28;20039;-81
2022/07/16 00:20:55;;;;;;;6.70;4.25;;;;;;;14.86;100.00;101907.16;4943553;28;20123;-82
2022/07/16 00:23:24;;;;;;;7.85;4.00;;;;;;;14.86;100.00;101912.47;4959592;28;20036;-81
2022/07/16 00:25:56;;;;;;;5.50;3.53;;;;;;;14.82;100.00;101915.13;4969067;28;20269;-81
2022/07/16 00:28:24;;;;;;;6.63;4.25;;;;;;;14.78;100.00;101923.97;4976407;28;20508;-82
2022/07/16 00:30:52;;;;;;;5.30;3.50;;;;;;;14.75;100.00;101925.72;4950046;28;20051;-82
2022/07/16 00:33:21;;;;;;;7.88;3.95;;;;;;;14.74;100.00;101927.47;4956170;28;20066;-82
2022/07/16 00:35:50;;;;;;;8.00;3.25;;;;;;;14.72;100.00;101921.28;4925260;28;20513;-82
2022/07/16 00:38:19;;;;;;;5.63;2.80;;;;;;;14.72;100.00;101936.31;4973142;28;20047;-81
2022/07/16 00:40:47;;;;;;;5.53;3.08;;;;;;;14.73;100.00;101932.81;4954479;28;20046;-83
2022/07/16 00:43:16;;;;;;;8.23;3.13;;;;;;;14.71;100.00;101930.13;4967117;28;20043;-81
2022/07/16 00:45:45;;;;;;;5.10;2.53;;;;;;;14.72;100.00;101929.25;4978538;28;20053;-81
2022/07/16 00:48:13;;;;;;;8.77;2.70;;;;;;;14.75;100.00;101928.38;4939751;29;20102;-81
2022/07/16 00:50:42;;;;;;;11.07;2.50;;;;;;;14.75;100.00;101931.91;4962307;28;20038;-81
2022/07/16 00:53:11;;;;;;;4.80;2.03;;;;;;;14.74;100.00;101940.75;4946640;28;20047;-81
2022/07/16 00:55:39;;;;;;;5.38;2.22;;;;;;;14.75;100.00;101929.25;4981578;28;20046;-81
2022/07/16 00:58:11;;;;;;;11.13;2.33;;;;;;;14.76;100.00;101925.75;4951471;28;20497;-82
2022/07/16 01:00:39;;;;;;;8.30;1.50;;;;;;;14.76;100.00;101927.50;4953348;28;20110;-81
2022/07/16 01:03:08;;;;;;;8.60;2.13;;;;;;;14.77;100.00;101922.19;4951728;28;20051;-81
2022/07/16 01:05:37;;;;;;;7.65;2.28;;;;;;;14.76;100.00;101931.06;4935446;29;20047;-81
2022/07/16 01:08:08;;;;;;;;;;;;;;;14.76;100.00;101927.50;4894050;28;20046;-81
2022/07/16 01:10:45;;;;;;;2.72;1.27;;;;;;;14.74;100.00;101926.59;4949295;28;20565;-81
2022/07/16 01:13:16;;;;;;;1.70;1.03;;;;;;;14.73;100.00;101923.06;4932047;29;20476;-81
2022/07/16 01:15:44;;;;;;;3.40;1.85;;;;;;;14.73;100.00;101923.06;4937738;28;20054;-81
2022/07/16 01:18:13;;;;;;;7.90;1.70;;;;;;;14.75;100.00;101933.69;4929411;28;20051;-81
2022/07/16 01:20:42;;;;;;;2.72;1.38;;;;;;;14.74;100.00;101923.94;4961475;28;20043;-81
2022/07/16 01:23:19;;;;;;;5.70;1.50;;;;;;;14.75;100.00;101926.59;4943846;29;20058;-81
2022/07/16 01:25:48;;;;;;;8.27;1.73;;;;;;;14.76;100.00;101920.44;4917664;28;20043;-81
2022/07/16 01:28:20;;;;;;;3.55;1.90;;;;;;;14.75;100.00;101926.59;4946864;28;20052;-81
2022/07/16 01:30:50;;;;;;;3.70;1.15;;;;;;;14.74;100.00;101919.50;4930549;29;20048;-81
2022/07/16 01:33:25;;;;;;;7.47;2.20;;;;;;;14.73;100.00;101917.75;4934177;29;20052;-80
2022/07/16 01:36:14;;;;;;;6.30;1.45;;;;;;;14.70;100.00;101933.66;4947523;28;20058;-81
2022/07/16 01:38:44;;;;;;;7.13;1.90;;;;;;;14.68;100.00;101935.41;4957320;28;20031;-81
2022/07/16 01:41:13;;;;;;;5.35;1.58;;;;;;;14.65;100.00;101938.09;4925310;28;20504;-80
2022/07/16 01:43:42;;;;;;;7.38;1.27;;;;;;;14.63;100.00;101939.84;4928485;29;20044;-82
2022/07/16 01:46:10;;;;;;;2.08;1.38;;;;;;;14.61;100.00;101934.53;4964395;28;20047;-82
2022/07/16 01:48:39;;;;;;;6.18;1.88;;;;;;;14.61;100.00;101941.56;4923513;29;20047;-80
2022/07/16 01:51:09;;;;;;;2.88;1.55;;;;;;;14.60;100.00;101938.06;4933831;29;20031;-82
2022/07/16 01:53:38;;;;;;;6.70;1.88;;;;;;;14.60;100.00;101931.88;4934456;29;20039;-82
2022/07/16 01:56:07;;;;;;;3.22;1.70;;;;;;;14.57;100.00;101946.00;4922595;28;20383;-82
2022/07/16 01:58:36;;;;;;;4.95;1.50;;;;;;;14.54;100.00;101938.00;4954315;28;20066;-81
2022/07/16 02:01:05;;;;;;;2.80;1.58;;;;;;;14.51;100.00;101948.59;4924669;29;20039;-82
2022/07/16 02:03:33;;;;;;;4.53;1.30;;;;;;;14.47;100.00;101951.22;4921186;28;20496;-82
2022/07/16 02:06:02;;;;;;;2.03;1.30;;;;;;;14.43;100.00;101948.56;4955794;28;20046;-81
2022/07/16 02:08:30;;;;;;;8.60;1.67;;;;;;;14.41;100.00;101952.09;4940736;28;20500;-81
2022/07/16 02:10:59;;;;;;;3.20;1.63;;;;;;;14.37;100.00;101947.66;4955902;28;20045;-81
2022/07/16 02:13:33;;;;;;;6.28;1.55;;;;;;;14.32;100.00;101957.34;4961660;28;20062;-82
2022/07/16 02:16:02;;;;;;;3.30;1.35;;;;;;;14.27;100.00;101957.28;4952713;28;20057;-82
2022/07/16 02:18:31;;;;;;;1.48;1.30;;;;;;;14.24;100.00;101955.53;4968475;28;20054;-80
2022/07/16 02:21:00;;;;;;;2.70;1.60;;;;;;;14.21;100.00;101962.56;4939112;28;20517;-80
2022/07/16 02:23:28;;;;;;;3.25;1.83;;;;;;;14.18;100.00;101965.22;4974041;28;20042;-81
2022/07/16 02:25:57;;;;;;;2.75;1.27;;;;;;;14.16;100.00;101961.69;4955350;28;20396;-83
2022/07/16 02:28:28;;;;;;;4.25;1.65;;;;;;;14.14;100.00;101963.41;4965636;28;20054;-82
2022/07/16 02:30:57;;;;;;;3.55;1.52;;;;;;;14.11;100.00;101961.63;4907924;28;20046;-81
2022/07/16 02:33:25;;;;;;;3.33;1.40;;;;;;;14.12;100.00;101970.47;4967414;28;20305;-81
2022/07/16 02:35:54;;;;;;;7.00;1.70;;;;;;;14.11;100.00;101968.69;4971021;28;20423;-81
2022/07/16 02:38:22;;;;;;;4.75;1.75;;;;;;;14.10;100.00;101966.91;4963848;28;20042;-81
2022/07/16 02:40:51;;;;;;;2.45;1.70;;;;;;;14.10;100.00;101972.22;4990692;28;20046;-83
2022/07/16 02:43:19;;;;;;;3.20;1.58;;;;;;;14.08;100.00;101968.66;4948845;28;20279;-81
2022/07/16 02:45:48;;;;;;;4.25;1.40;;;;;;;14.06;100.00;101965.13;4959668;28;20395;-81
2022/07/16 02:48:17;;;;;;;7.35;2.22;;;;;;;14.03;100.00;101972.19;4972668;28;20054;-81
2022/07/16 02:50:48;;;;;;;7.00;1.80;;;;;;;14.01;100.00;101970.41;4963444;28;20034;-81
2022/07/16 02:53:16;;;;;;;6.07;1.70;;;;;;;13.98;100.00;101971.25;4980964;28;20785;-81
2022/07/16 02:55:46;;;;;;;3.88;1.52;;;;;;;13.98;100.00;101968.59;4924572;28;20054;-82
2022/07/16 02:58:16;;;;;;;6.28;1.98;;;;;;;13.96;100.00;101970.34;4907484;28;20047;-81
2022/07/16 03:00:44;;;;;;;4.10;1.70;;;;;;;13.95;100.00;101973.91;4954169;28;20407;-81
2022/07/16 03:03:13;;;;;;;2.35;1.40;;;;;;;13.92;100.00;101973.00;4948619;28;20257;-82
2022/07/16 03:05:41;;;;;;;2.38;1.55;;;;;;;13.87;100.00;101974.72;4979213;28;20523;-80
2022/07/16 03:08:10;;;;;;;11.35;1.90;;;;;;;13.83;100.00;101979.09;4978442;28;20566;-81
2022/07/16 03:10:38;;;;;;;3.22;1.52;;;;;;;13.80;100.00;101979.09;4937012;28;20041;-81
2022/07/16 03:13:07;;;;;;;3.22;1.33;;;;;;;13.76;100.00;101979.91;4937857;28;20272;-81
2022/07/16 03:15:35;;;;;;;3.58;1.65;;;;;;;13.73;100.00;101971.97;4958804;28;20057;-82
2022/07/16 03:18:04;;;;;;;5.45;1.85;;;;;;;13.73;100.00;101974.63;4963094;28;20039;-81
2022/07/16 03:20:32;;;;;;;4.10;1.70;;;;;;;13.69;100.00;101975.47;4965018;28;20050;-81
2022/07/16 03:23:01;;;;;;;2.90;1.70;;;;;;;13.67;100.00;101982.47;4971993;28;20043;-83
2022/07/16 03:25:29;;;;;;;6.43;1.65;;;;;;;13.65;100.00;101985.16;4960474;28;20047;-81
2022/07/16 03:28:02;;;;;;;4.88;1.50;;;;;;;13.63;100.00;101986.91;4952808;28;20504;-81
2022/07/16 03:30:31;;;;;;;4.03;1.70;;;;;;;13.63;100.00;101993.06;4967488;28;20066;-82
2022/07/16 03:33:02;;;;;;;3.50;1.60;;;;;;;13.59;100.00;102000.97;4967360;28;20617;-81
2022/07/16 03:35:31;;;;;;;7.90;2.30;;;;;;;13.56;100.00;101996.53;4970176;28;20053;-81
2022/07/16 03:40:46;;;;;;;5.05;2.25;;;;;;;13.52;100.00;101994.72;4981356;28;20058;-82
2022/07/16 03:43:15;;;;;;;7.13;2.30;;;;;;;13.50;100.00;101999.13;4949879;28;20839;-80
2022/07/16 03:45:43;;;;;;;7.47;2.30;;;;;;;13.48;100.00;101998.22;4992260;28;20407;-81
2022/07/16 03:48:12;;;;;;;4.65;2.40;;;;;;;13.48;100.00;102005.25;4952109;28;20574;-81
2022/07/16 03:50:40;;;;;;;6.90;2.70;;;;;;;13.48;100.00;102006.19;4966693;28;20050;-81
2022/07/16 03:53:08;;;;;;;6.97;2.47;;;;;;;13.52;100.00;102012.41;4962763;28;20069;-82
2022/07/16 03:55:37;;;;;;;6.93;2.78;;;;;;;13.56;100.00;102011.53;4976111;28;20050;-82
2022/07/16 03:58:05;;;;;;;8.30;2.72;;;;;;;13.57;100.00;102014.22;4953161;28;20507;-81
2022/07/16 04:00:33;;;;;;;6.90;2.22;;;;;;;13.59;100.00;102014.19;4946721;28;20047;-81
2022/07/16 04:03:04;;;;;;;;;;;;;;;13.60;100.00;102016.00;4944618;28;20043;-81
2022/07/16 04:05:32;;;;;;;4.18;2.40;;;;;;;13.61;100.00;102018.66;4962804;28;19933;-81
2022/07/16 04:08:01;;;;;;;3.45;1.92;;;;;;;13.63;100.00;102016.91;4961776;28;20051;-81
2022/07/16 04:10:29;;;;;;;3.95;2.10;;;;;;;13.65;100.00;102011.63;4970248;28;20432;-81
2022/07/16 04:12:58;;;;;;;3.88;2.67;;;;;;;13.63;100.00;102014.25;4965177;28;20055;-81
2022/07/16 04:15:27;;;;;;;6.97;2.75;;;;;;;13.63;100.00;102019.56;4939065;28;20292;-81
2022/07/16 04:17:55;;;;;;;8.98;2.60;;;;;;;13.62;100.00;102017.78;4968469;28;20058;-82
2022/07/16 04:20:24;;;;;;;5.68;2.88;;;;;;;13.62;100.00;102024.84;4960796;28;20039;-81
2022/07/16 04:22:53;;;;;;;5.10;2.22;;;;;;;13.60;100.00;102030.13;4937291;28;20050;-82
2022/07/16 04:25:21;;;;;;;4.45;1.90;;;;;;;13.59;100.00;102035.38;4949373;28;20051;-81
2022/07/16 04:27:49;;;;;;;6.18;1.80;;;;;;;13.56;100.00;102041.56;4968528;28;20046;-82
2022/07/16 04:30:18;;;;;;;4.25;1.85;;;;;;;13.55;100.00;102047.72;4951722;28;20051;-81
2022/07/16 04:32:47;;;;;;;11.73;2.80;;;;;;;13.55;100.00;102031.81;4943690;28;20035;-81
2022/07/16 04:35:16;;;;;;;5.97;2.05;;;;;;;13.59;100.00;102040.69;4952331;28;20337;-81
2022/07/16 04:37:44;;;;;;;3.00;1.80;;;;;;;13.64;100.00;102049.56;4952718;28;20623;-82
2022/07/16 04:40:13;;;;;;;5.28;2.20;;;;;;;13.68;100.00;102051.38;4973848;28;20529;-81
2022/07/16 04:42:44;;;;;;;9.55;1.95;;;;;;;13.72;100.00;102065.53;4951881;28;20039;-81
2022/07/16 04:45:13;;;;;;;5.70;1.80;;;;;;;13.76;100.00;102057.66;4945033;28;20062;-80
2022/07/16 04:47:41;;;;;;;9.90;2.50;;;;;;;13.82;100.00;102064.78;4914895;29;20054;-82
2022/07/16 04:50:10;;;;;;;7.60;1.85;;;;;;;13.85;100.00;102070.06;4949445;29;20046;-82
2022/07/16 04:52:38;;;;;;;6.90;1.90;;;;;;;13.90;100.00;102062.19;4940030;28;20714;-82
2022/07/16 04:55:08;;;;;;;6.53;2.25;;;;;;;13.93;100.00;102060.44;4960340;28;20066;-82
2022/07/16 04:57:36;;;;;;;5.68;1.50;;;;;;;13.95;100.00;102074.59;4947646;28;20550;-81
2022/07/16 05:00:06;;;;;;;6.93;1.88;;;;;;;13.98;100.00;102079.91;4969991;28;20054;-81
2022/07/16 05:05:22;;;;;;;7.78;1.60;;;;;;;14.15;100.00;102080.06;4951990;28;20305;-81
2022/07/16 05:07:50;;;;;;;5.10;1.30;;;;;;;14.34;100.00;102093.47;4988527;28;20049;-81
2022/07/16 05:10:20;;;;;;;4.45;1.48;;;;;;;14.70;100.00;102090.19;4965328;28;20047;-81
2022/07/16 05:12:52;;;;;;;5.50;1.77;;;;;;;15.45;100.00;102102.03;4973816;28;20444;-81
2022/07/16 05:15:21;;;;;;;8.95;1.92;;;;;;;16.16;100.00;102103.97;4968829;28;20046;-81
2022/07/16 05:17:50;;;;;;;3.53;1.35;;;;;;;16.69;100.00;102098.56;4940480;28;20050;-80
2022/07/16 05:20:18;;;;;;;4.25;1.45;;;;;;;16.87;100.00;102100.34;4973096;28;20526;-81
2022/07/16 05:22:47;;;;;;;4.80;1.15;;;;;;;17.01;100.00;102106.47;4965228;28;20595;-81
2022/07/16 05:25:16;;;;;;;7.05;1.40;;;;;;;17.70;100.00;102107.94;4964152;28;20054;-82
2022/07/16 05:27:46;;;;;;;7.18;1.50;;;;;;;18.18;100.00;102103.16;4976721;28;20057;-81
2022/07/16 05:30:14;;;;;;;4.40;1.65;;;;;;;18.44;100.00;102115.38;4964971;28;20396;-82
2022/07/16 05:32:44;;;;;;;7.53;1.30;;;;;;;18.90;100.00;102120.28;4943023;28;20077;-81
2022/07/16 05:35:16;;;;;;;3.22;1.35;;;;;;;19.32;100.00;102117.09;4971555;28;20514;-82
2022/07/16 05:37:44;;;;;;;3.42;1.02;;;;;;;19.67;100.00;102125.50;4960096;28;20057;-81
2022/07/16 05:40:13;;;;;;;6.40;1.45;;;;;;;20.02;100.00;102132.19;4936543;28;20518;-81
2022/07/16 05:42:42;;;;;;;7.55;1.73;;;;;;;20.35;97.48;102126.28;4967208;28;20180;-81
2022/07/16 05:45:17;;;;;;;6.07;1.13;;;;;;;20.36;93.43;102134.28;4964765;28;20050;-81
2022/07/16 05:47:46;;;;;;;4.63;1.17;;;;;;;20.21;92.37;102137.25;4962095;28;20046;-81
2022/07/16 05:50:15;;;;;;;7.50;1.20;;;;;;;20.27;90.95;102136.25;4930615;28;20053;-82
2022/07/16 05:52:43;;;;;;;7.63;1.40;;;;;;;20.31;88.61;102148.66;4966272;28;20050;-80
2022/07/16 05:55:12;;;;;;;3.55;0.98;;;;;;;20.17;88.02;102152.47;4946025;28;20034;-80
2022/07/16 05:57:40;;;;;;;3.90;0.90;;;;;;;20.08;87.26;102157.94;4952489;28;20512;-81
2022/07/16 06:00:10;;;;;;;3.22;1.05;;;;;;;19.88;84.80;102157.38;4946055;28;20046;-81
2022/07/16 06:02:42;;;;;;;3.67;1.25;;;;;;;19.82;81.98;102164.56;4970502;28;20279;-81
2022/07/16 06:05:11;;;;;;;3.10;0.85;;;;;;;19.73;81.26;102166.50;4960726;28;20050;-81
2022/07/16 06:07:40;;;;;;;2.05;0.90;;;;;;;19.51;78.36;102165.84;4984167;28;20693;-81
2022/07/16 06:10:09;;;;;;;4.85;1.20;;;;;;;19.34;78.41;102164.31;4965930;28;20046;-81
2022/07/16 06:12:38;;;;;;;4.68;0.98;;;;;;;19.11;78.38;102174.38;4982423;28;20280;-81
2022/07/16 06:15:07;;;;;;;3.47;1.08;;;;;;;18.83;77.02;102178.22;4990614;28;20053;-81
2022/07/16 06:17:35;;;;;;;2.65;0.80;;;;;;;18.58;77.06;102172.22;4958253;28;20265;-81
2022/07/16 06:20:05;;;;;;;7.20;1.15;;;;;;;18.43;77.58;102172.31;4905837;28;20049;-81
2022/07/16 06:22:33;;;;;;;3.88;1.08;;;;;;;18.22;78.47;102171.63;4972447;28;20686;-81
2022/07/16 06:25:02;;;;;;;6.65;0.90;;;;;;;18.08;78.11;102176.16;4957754;28;20051;-81
2022/07/16 06:27:31;;;;;;;2.85;1.30;;;;;;;18.02;80.08;102184.22;4968356;28;20054;-81
2022/07/16 06:30:06;;;;;;;6.10;0.95;;;;;;;18.01;79.37;102185.97;4990518;28;20372;-81
2022/07/16 06:32:35;;;;;;;3.03;1.00;;;;;;;18.17;81.03;102197.44;4983535;28;20062;-81
2022/07/16 06:35:04;;;;;;;7.13;1.17;;;;;;;18.38;80.33;102191.06;4926154;28;20035;-81
2022/07/16 06:37:32;;;;;;;4.57;1.20;;;;;;;18.57;78.96;102191.78;4947087;28;20054;-81
2022/07/16 06:40:01;;;;;;;5.30;1.30;;;;;;;18.35;77.68;102195.53;4935446;28;20487;-81
2022/07/16 06:42:29;;;;;;;4.78;1.30;;;;;;;18.18;78.15;102196.53;4965805;28;20065;-83
2022/07/16 06:44:59;;;;;;;4.75;1.77;;;;;;;18.21;77.79;102201.84;4963551;28;20050;-81
2022/07/16 06:47:27;;;;;;;6.20;1.52;;;;;;;18.14;78.10;102208.13;4968088;28;20042;-81
2022/07/16 06:49:56;;;;;;;3.50;1.17;;;;;;;18.01;78.07;102204.63;4990080;28;20038;-81
2022/07/16 06:52:24;;;;;;;5.80;0.95;;;;;;;17.91;78.26;102205.59;4928804;28;20043;-82
2022/07/16 06:54:53;;;;;;;5.25;1.10;;;;;;;17.90;79.23;102211.81;4996637;28;20042;-82
2022/07/16 06:57:22;;;;;;;6.70;1.10;;;;;;;17.92;78.96;102208.25;4978761;28;20046;-81
2022/07/16 06:59:50;;;;;;;4.95;1.30;;;;;;;17.98;79.18;102223.34;4982259;28;20043;-82
2022/07/16 07:02:21;;;;;;;5.80;1.35;;;;;;;17.93;77.85;102226.03;4951327;28;20531;-81
2022/07/16 07:04:50;;;;;;;4.07;1.08;;;;;;;17.87;78.14;102228.72;4965513;28;20050;-83
2022/07/16 07:07:18;;;;;;;7.25;2.67;;;;;;;17.88;76.32;102230.50;4958450;28;20376;-83
2022/07/16 07:09:48;;;;;;;5.93;1.20;;;;;;;17.88;77.67;102238.50;4976391;28;20050;-81
2022/07/16 07:12:17;;;;;;;37.05;1.63;;;;;;;17.89;78.03;102237.59;4936256;28;20391;-83
2022/07/16 07:14:45;;;;;;;4.00;1.10;;;;;;;17.96;78.64;102242.91;4956888;28;20027;-81
2022/07/16 07:17:13;;;;;;;2.50;1.10;;;;;;;18.03;77.45;102242.84;4992276;28;20046;-81
2022/07/16 07:19:42;;;;;;;4.65;1.38;;;;;;;17.96;76.09;102245.56;4966019;28;20622;-81
2022/07/16 07:22:10;;;;;;;3.92;1.25;;;;;;;17.73;75.79;102251.84;4947823;28;20054;-81
2022/07/16 07:24:39;;;;;;;1.75;0.85;;;;;;;17.50;76.17;102257.28;4948998;28;20086;-82
2022/07/16 07:27:18;;;;;;;4.93;1.60;;;;;;;17.22;77.51;102261.78;4977830;28;20050;-82
2022/07/16 07:29:50;;;;;;;2.80;1.27;;;;;;;17.07;77.80;102258.28;4949532;28;20042;-81
2022/07/16 07:32:19;;;;;;;5.55;1.10;;;;;;;16.96;77.99;102260.06;4994072;28;20050;-82
2022/07/16 07:34:47;;;;;;;10.75;1.83;;;;;;;16.95;78.62;102261.81;4972751;28;20272;-81
2022/07/16 07:37:18;;;;;;;4.60;1.38;;;;;;;17.10;79.43;102258.25;4946827;28;20073;-83
2022/07/16 07:39:54;;;;;;;5.30;1.35;;;;;;;17.26;79.22;102261.78;4959249;28;20043;-83
2022/07/16 07:42:22;;;;;;;3.05;0.93;;;;;;;17.30;78.67;102271.56;4969196;28;20259;-82
2022/07/16 07:44:51;;;;;;;4.97;0.98;;;;;;;17.29;78.80;102269.75;4951045;28;20061;-82
2022/07/16 07:47:20;;;;;;;3.60;1.00;;;;;;;17.22;79.22;102268.03;4946175;28;20058;-82
2022/07/16 07:49:48;;;;;;;2.50;1.08;;;;;;;17.08;79.23;102278.69;4976741;28;20053;-82
2022/07/16 07:52:17;;;;;;;4.32;0.82;;;;;;;17.03;80.17;102288.47;4973897;28;20039;-82
2022/07/16 07:54:45;;;;;;;2.92;1.23;;;;;;;16.86;80.19;102287.56;4951760;28;20038;-82
2022/07/16 07:57:14;;;;;;;2.97;1.23;;;;;;;16.77;81.35;102291.97;4985727;28;20050;-82
2022/07/16 07:59:42;;;;;;;5.50;1.65;;;;;;;16.65;83.05;102297.28;4968217;28;20400;-82
2022/07/16 08:02:14;;;;;;;8.73;1.17;;;;;;;16.51;84.41;102293.72;4939453;28;20058;-83
2022/07/16 08:04:42;;;;;;;5.78;1.30;;;;;;;16.37;86.21;102301.69;4975980;28;20034;-82
2022/07/16 08:07:11;;;;;;;6.28;1.73;;;;;;;16.34;87.13;102313.19;4937253;28;20050;-82
2022/07/16 08:09:41;;;;;;;7.45;1.35;;;;;;;16.40;88.59;102306.13;4929252;28;20070;-81
2022/07/16 08:12:10;;;;;;;5.53;1.42;;;;;;;16.43;88.84;102303.47;4965786;28;20050;-82
2022/07/16 08:14:38;;;;;;;4.03;1.10;;;;;;;16.53;89.60;102305.25;4992512;28;20054;-82
2022/07/16 08:17:07;;;;;;;6.18;1.10;;;;;;;16.75;89.13;102311.50;4978288;28;20173;-83
2022/07/16 08:19:35;;;;;;;5.40;1.55;;;;;;;16.97;88.08;102311.53;4948085;28;20050;-81
2022/07/16 08:22:07;;;;;;;4.03;1.50;;;;;;;17.26;87.67;102304.41;4978340;28;20420;-83
2022/07/16 08:27:26;;;;;;;2.47;1.10;;;;;;;17.51;85.33;102307.03;4975417;28;20050;-83
2022/07/16 08:29:54;;;;;;;5.65;1.20;;;;;;;17.65;85.74;102309.66;4951541;28;20047;-82
2022/07/16 08:32:22;;;;;;;4.22;1.30;;;;;;;17.77;83.92;102312.28;4971391;28;20244;-83
2022/07/16 08:34:51;;;;;;;4.68;1.20;;;;;;;17.74;83.34;102314.97;4931853;28;20042;-83
2022/07/16 08:37:35;;;;;;;7.60;1.38;;;;;;;17.84;84.10;102319.38;4925976;28;20510;-84
2022/07/16 08:40:10;;;;;;;4.28;1.40;;;;;;;18.00;83.87;102319.34;4971372;28;20051;-83
2022/07/16 08:42:43;;;;;;;5.25;1.60;;;;;;;18.11;82.30;102325.53;4940605;28;20049;-84
2022/07/16 08:45:13;;;;;;;6.32;1.45;;;;;;;18.14;81.41;102321.94;4959809;28;20051;-82
2022/07/16 08:47:42;;;;;;;7.50;1.25;;;;;;;18.24;80.84;102343.25;4972717;28;20632;-82
2022/07/16 08:50:14;;;;;;;5.68;1.50;;;;;;;18.16;81.16;102331.72;4959639;28;20401;-83
2022/07/16 08:52:53;;;;;;;7.47;1.67;;;;;;;18.01;80.56;102339.78;4968783;28;20412;-83
2022/07/16 08:55:26;;;;;;;4.40;1.48;;;;;;;17.85;82.25;102349.63;4982020;28;20045;-83
2022/07/16 08:57:56;;;;;;;6.07;1.52;;;;;;;17.80;81.78;102341.59;4972735;28;20051;-84
2022/07/16 09:00:25;;;;;;;4.43;1.40;;;;;;;17.74;81.09;102349.63;4962796;28;20061;-82
2022/07/16 09:02:54;;;;;;;5.82;1.35;;;;;;;17.64;81.15;102347.88;4968002;28;20057;-82
2022/07/16 09:05:24;;;;;;;9.13;1.67;;;;;;;17.56;80.99;102357.66;4961737;28;20046;-82
2022/07/16 09:07:53;;;;;;;7.93;1.50;;;;;;;17.44;81.76;102355.91;4955096;28;20042;-82
2022/07/16 09:10:34;;;;;;;4.88;1.38;;;;;;;17.44;82.22;102364.78;4952247;28;20042;-82
2022/07/16 09:13:10;;;;;;;7.18;1.50;;;;;;;17.59;82.85;102363.00;4960443;28;20049;-82
2022/07/16 09:15:45;;;;;;;4.57;1.27;;;;;;;17.73;80.27;102362.06;4947780;28;20424;-83
2022/07/16 09:18:25;;;;;;;7.35;1.27;;;;;;;17.77;79.56;102373.63;4961254;28;20034;-83
2022/07/16 09:20:55;;;;;;;5.77;1.57;;;;;;;17.67;78.84;102383.38;4971203;28;20054;-82
2022/07/16 09:23:31;;;;;;;5.80;1.30;;;;;;;17.60;78.23;102378.06;4970578;28;20403;-82
2022/07/16 09:26:11;;;;;;;4.82;1.35;;;;;;;17.66;78.40;102386.97;4933328;28;20351;-83
2022/07/16 09:28:50;;;;;;;5.05;1.25;;;;;;;17.71;77.03;102389.59;4906245;28;20042;-83
2022/07/16 09:31:38;;;;;;;3.92;1.20;;;;;;;17.81;73.87;102395.84;4978664;28;20632;-83
2022/07/16 09:34:10;;;;;;;3.97;1.35;;;;;;;17.85;76.49;102402.97;4958856;28;20031;-82
2022/07/16 09:37:05;;;;;;;2.17;1.35;;;;;;;17.81;75.60;102407.38;4963692;28;20050;-83
2022/07/16 09:39:34;;;;;;;7.78;1.42;;;;;;;17.70;77.01;102394.06;4983600;28;20049;-83
2022/07/16 09:42:03;;;;;;;4.17;1.23;;;;;;;17.67;77.06;102403.84;4983369;28;20512;-83
2022/07/16 09:44:34;;;;;;;4.35;1.33;;;;;;;17.69;76.67;102396.72;4950136;28;20050;-83
2022/07/16 09:47:07;;;;;;;;;;;;;;;17.84;72.75;102410.06;4953575;28;20057;-84
2022/07/16 09:49:38;;;;;;;4.75;1.33;;;;;;;17.97;75.23;102399.38;4984748;28;19932;-83
2022/07/16 09:52:26;;;;;;;3.50;1.23;;;;;;;18.01;75.45;102409.13;4985204;28;20042;-83
2022/07/16 09:54:56;;;;;;;3.75;1.23;;;;;;;18.01;76.42;102415.34;4965017;28;20057;-83
2022/07/16 09:57:28;;;;;;;5.82;1.38;;;;;;;18.00;76.52;102405.59;4964198;28;20057;-83
2022/07/16 09:59:58;;;;;;;4.25;1.20;;;;;;;18.03;76.02;102421.56;4921736;28;20054;-83
2022/07/16 10:02:30;;;;;;;3.80;1.10;;;;;;;18.04;76.63;102409.13;4976453;28;20053;-83
2022/07/16 10:05:00;;;;;;;8.13;1.42;;;;;;;18.05;77.12;102426.91;4962177;28;20046;-83
2022/07/16 10:07:32;;;;;;;6.03;1.02;;;;;;;18.08;76.68;102417.09;4976286;28;20034;-84
2022/07/16 10:10:02;;;;;;;4.55;1.35;;;;;;;18.11;76.51;102419.78;4970155;28;20066;-84
2022/07/16 10:12:30;;;;;;;5.90;1.25;;;;;;;18.11;76.61;102437.56;4990162;28;20526;-83
2022/07/16 10:15:01;;;;;;;4.95;1.05;;;;;;;18.03;77.52;102428.69;4963699;28;20050;-82
2022/07/16 10:17:37;;;;;;;5.88;1.48;;;;;;;18.02;77.83;102433.13;4939828;28;20049;-82
2022/07/16 10:20:09;;;;;;;5.38;1.52;;;;;;;17.99;78.07;102435.81;4945360;28;20069;-82
2022/07/16 10:22:39;;;;;;;9.02;1.52;;;;;;;17.88;79.56;102440.25;4968770;28;20053;-82
2022/07/16 10:25:35;;;;;;;5.00;1.23;;;;;;;17.80;82.33;102445.59;4984549;28;20507;-83
2022/07/16 10:28:04;;;;;;;8.32;1.52;;;;;;;17.72;81.63;102444.72;4964989;28;20050;-82
2022/07/16 10:30:32;;;;;;;6.70;1.90;;;;;;;17.68;81.90;102458.94;4963675;28;20058;-82
2022/07/16 10:33:05;;;;;;;9.15;1.48;;;;;;;17.67;81.46;102455.38;4930194;28;20574;-82
2022/07/16 10:35:49;;;;;;;3.22;1.23;;;;;;;17.81;80.88;102444.72;4971562;28;20391;-83
2022/07/16 10:38:24;;;;;;;9.20;1.50;;;;;;;17.93;80.99;102450.03;4959352;28;20170;-83
2022/07/16 10:41:10;;;;;;;11.00;1.98;;;;;;;18.10;76.93;102451.78;4953483;28;20051;-83
2022/07/16 10:43:39;;;;;;;10.25;1.63;;;;;;;18.34;78.69;102457.97;4973308;28;20046;-82
2022/07/16 10:46:10;;;;;;;4.05;1.25;;;;;;;18.64;78.33;102454.28;4944026;28;20054;-82
2022/07/16 10:48:39;;;;;;;12.05;1.70;;;;;;;18.79;76.81;102471.97;4963639;28;20047;-81
2022/07/16 10:51:19;;;;;;;5.07;1.30;;;;;;;18.78;74.65;102470.22;4959181;28;20077;-84
2022/07/16 10:54:03;;;;;;;8.13;1.40;;;;;;;18.74;71.95;102465.78;4965562;28;20054;-83
2022/07/16 10:56:39;;;;;;;2.42;0.82;;;;;;;18.69;72.99;102465.78;4958846;28;20049;-83
2022/07/16 10:59:10;;;;;;;7.53;1.60;;;;;;;18.72;73.14;102470.25;4957410;28;20057;-83
2022/07/16 11:01:40;;;;;;;3.65;1.10;;;;;;;18.66;72.45;102474.72;4938764;28;20042;-82
2022/07/16 11:04:09;;;;;;;;;;;;;;;18.50;66.95;102476.53;4946831;28;20162;-83
2022/07/16 11:06:39;;;;;;;3.35;1.02;;;;;;;18.49;71.25;102476.56;4941956;28;19945;-83
2022/07/16 11:09:09;;;;;;;4.97;1.65;;;;;;;18.51;72.90;102472.13;4925751;29;20399;-84
2022/07/16 11:11:40;;;;;;;7.18;1.50;;;;;;;18.49;72.38;102477.47;4926467;28;20055;-83
2022/07/16 11:14:09;;;;;;;6.90;1.67;;;;;;;18.44;71.79;102486.38;4941071;28;20051;-84
2022/07/16 11:16:48;;;;;;;6.13;1.65;;;;;;;18.49;70.91;102484.59;4940652;29;20043;-83
2022/07/16 11:19:21;;;;;;;4.80;1.27;;;;;;;18.46;71.23;102484.59;4935606;28;20236;-84
2022/07/16 11:22:01;;;;;;;7.30;1.63;;;;;;;18.43;70.33;102484.59;4921591;28;20047;-82
2022/07/16 11:24:35;;;;;;;4.50;1.27;;;;;;;18.41;69.70;102483.69;4936698;28;20043;-85
2022/07/16 11:27:06;;;;;;;6.57;1.27;;;;;;;18.39;68.97;102491.75;4923435;29;20034;-84
2022/07/16 11:29:35;;;;;;;2.97;1.00;;;;;;;18.45;70.30;102481.03;4935319;28;20280;-84
2022/07/16 11:32:04;;;;;;;6.40;1.33;;;;;;;18.62;69.25;102493.41;4950664;28;20047;-84
2022/07/16 11:34:36;;;;;;;3.35;1.13;;;;;;;18.83;68.94;102488.03;4924389;28;20147;-84
2022/07/16 11:37:08;;;;;;;2.38;1.00;;;;;;;19.14;68.24;102487.84;4943942;28;20051;-82
2022/07/16 11:39:40;;;;;;;3.17;1.10;;;;;;;19.32;65.51;102491.28;4944780;29;20568;-83
2022/07/16 11:42:09;;;;;;;2.38;1.13;;;;;;;19.47;65.58;102492.06;4923507;29;20426;-83
2022/07/16 11:44:41;;;;;;;3.78;1.30;;;;;;;19.62;64.94;102493.72;4925351;28;20158;-83
2022/07/16 11:47:13;;;;;;;3.88;1.08;;;;;;;19.66;63.35;102497.28;4909210;29;20047;-82
2022/07/16 11:49:48;;;;;;;5.60;1.27;;;;;;;19.63;61.71;102502.63;4921494;29;20385;-82